Taylor Fork

This weather station provides wind speed, gust or max wind speed, and wind direction at 9460 ft. near Pika Point above Sunlight Basin.  

This data can be used with temperature and precipitation data from the Carrot Basin SNOTEL site. If the data below is not displayed or up to date, view data here.

Elevation
9460ft
Jump to table bottom
Date Time Temperature
deg F
RH, % Wind Speed Wind Gust Wind Direction
02/25/24 23:00 22.2 94 30 43 W - 257
02/25/24 22:00 22.5 95 29 42 W - 256
02/25/24 21:00 23.0 96 26 41 W - 249
02/25/24 20:00 23.1 96 28 47 W - 252
02/25/24 19:00 23.1 96 30 45 W - 253
02/25/24 18:00 22.2 96 26 40 SW - 247
02/25/24 17:00 21.9 96 26 46 SW - 246
02/25/24 16:00 22.6 96 25 39 SW - 238
02/25/24 15:00 22.0 95 25 41 SW - 225
02/25/24 14:00 21.6 89 24 40 SW - 210
02/25/24 13:00 22.1 87 23 38 S - 190
02/25/24 12:00 22.0 88 21 38 S - 169
02/25/24 11:00 22.5 88 16 31 SE - 146
02/25/24 10:00 21.1 88 15 27 SE - 149
02/25/24 09:00 21.1 92 12 22 SE - 142
02/25/24 08:00 21.0 94 14 27 SE - 131
02/25/24 07:00 20.3 95 15 29 SE - 142
02/25/24 06:00 20.3 95 18 30 SE - 134
02/25/24 05:00 19.5 95 15 26 SE - 130
02/25/24 04:00 20.3 95 17 28 SE - 153
02/25/24 03:00 19.6 95 15 30 SE - 137
02/25/24 02:00 20.0 96 14 29 SE - 131
02/25/24 01:00 19.7 96 16 30 SE - 141
02/25/24 00:00 19.9 96 16 30 SE - 144
02/24/24 23:00 20.2 96 17 30 SE - 145
02/24/24 22:00 20.7 96 18 30 SE - 127
02/24/24 21:00 20.8 96 19 33 S - 170
02/24/24 20:00 20.8 95 22 36 S - 170
02/24/24 19:00 19.8 95 21 36 SE - 142
02/24/24 18:00 19.2 94 21 37 SE - 152
02/24/24 17:00 19.1 92 20 36 SE - 144
02/24/24 16:00 20.2 88 21 38 S - 160
02/24/24 15:00 20.9 82 21 38 S - 179
02/24/24 14:00 20.6 79 21 40 S - 181
02/24/24 13:00 22.7 81 20 43 S - 187
02/24/24 12:00 20.2 84 17 30 S - 186
02/24/24 11:00 19.9 84 17 26 S - 198
02/24/24 10:00 19.6 88 17 31 SW - 204
02/24/24 09:00 17.6 89 20 30 S - 188
02/24/24 08:00 16.7 87 20 32 S - 194
02/24/24 07:00 14.8 84 19 29 S - 195
02/24/24 06:00 15.7 81 13 33 S - 160
02/24/24 05:00 16.2 79 12 24 SE - 155
02/24/24 04:00 16.4 76 11 28 S - 166
02/24/24 03:00 18.7 76 10 27 SW - 231
02/24/24 02:00 16.0 89 15 29 SE - 131
02/24/24 01:00 16.2 82 16 25 SW - 210
02/24/24 00:00 16.2 79 20 28 SW - 247
02/23/24 23:00 15.7 82 21 31 W - 250
02/23/24 22:00 16.1 84 18 28 SW - 233